Impacts TAF Board
For situational awareness. Not to be used for flight planning purposes.
IDs:

KPHX - Phoenix/Sky Harbor, AZ, US

Issued at 0540 UTC 23 Oct 2018
Updated at 0822 UTC 23 Oct 2018
Potential Impact None Slight Moderate High
Time<<24/09Z 24/10Z 24/11Z 24/12Z 24/13Z 24/14Z 24/15Z 24/16Z 24/17Z 24/18Z 24/19Z 24/20Z 24/21Z
Type PRVL PRVL PRVL
VIS >6 >6 >6
CIG -- -- --
Cover SCT SCT SCT
FltCat VFR VFR VFR
WX -- -- --
WDir VRB VRB VRB
WSpd 6 6 6
WGst -- -- --
Raw TAF
KPHX 230540Z 2306/2412 24005KT P6SM FEW080 SCT120 OVC250
  FM230700 10005KT P6SM SCT080 BKN120 OVC250
  FM231800 13010KT P6SM VCSH SCT080 BKN250
  FM232300 27007KT P6SM SCT080 SCT250
  FM240300 VRB06KT P6SM FEW080 SCT250


METAR Board
Radar Display
Forecast Discussion
For situational awareness. Not to be used for flight planning purposes.